createdAt,value
2022-08-22T00:00:14.148Z,2.10
2022-08-22T00:02:55.897Z,1.92
2022-08-22T00:02:58.022Z,1.75
2022-08-22T00:02:59.073Z,2.08
2022-08-22T00:03:07.845Z,3.05
2022-08-22T00:03:12.196Z,1.92
2022-08-22T00:06:25.813Z,2.15
2022-08-22T00:09:15.515Z,1.80
2022-08-22T00:11:54.189Z,1.85
2022-08-22T00:14:54.821Z,1.88
2022-08-22T00:17:36.758Z,1.88
2022-08-22T00:20:19.232Z,1.85
2022-08-22T00:22:50.592Z,2.20
2022-08-22T00:25:27.319Z,2.03
2022-08-22T00:27:57.696Z,1.70
2022-08-22T00:30:25.125Z,1.92
2022-08-22T00:32:59.609Z,1.80
2022-08-22T00:35:36.321Z,2.00
2022-08-22T00:38:33.836Z,2.00
2022-08-22T00:41:24.818Z,2.10
2022-08-22T00:44:10.738Z,1.85
2022-08-22T00:47:23.764Z,2.00
2022-08-22T00:50:09.129Z,1.98
2022-08-22T00:53:00.663Z,1.90
2022-08-22T00:55:50.896Z,2.20
2022-08-22T00:58:32.531Z,2.33
2022-08-22T01:01:09.794Z,2.17
2022-08-22T01:03:48.361Z,2.25
2022-08-22T01:06:33.183Z,2.15
2022-08-22T01:09:15.291Z,2.67
2022-08-22T01:11:51.674Z,2.40
2022-08-22T01:14:34.548Z,2.60
2022-08-22T01:17:20.061Z,2.60
2022-08-22T01:19:58.539Z,2.30
2022-08-22T01:22:49.116Z,2.40
2022-08-22T01:25:57.453Z,2.50
2022-08-22T01:29:09.455Z,2.78
2022-08-22T01:32:08.008Z,2.78
2022-08-22T01:34:55.593Z,2.53
2022-08-22T01:37:25.030Z,2.55
2022-08-22T01:40:03.620Z,2.58
2022-08-22T01:42:57.439Z,2.42
2022-08-22T01:45:53.139Z,2.40
2022-08-22T01:48:32.757Z,2.50
2022-08-22T01:51:22.528Z,2.38
2022-08-22T01:54:04.732Z,2.67
2022-08-22T01:56:35.921Z,2.47
2022-08-22T01:59:10.062Z,2.50
2022-08-22T02:01:59.507Z,2.38
2022-08-22T02:04:59.785Z,2.53
2022-08-22T02:07:32.364Z,2.50
2022-08-22T02:10:20.879Z,2.22
2022-08-22T02:13:12.876Z,2.47
2022-08-22T02:15:40.859Z,2.50
2022-08-22T02:18:08.955Z,2.25
2022-08-22T02:20:47.543Z,2.53
2022-08-22T02:23:26.104Z,2.50
2022-08-22T02:26:03.226Z,2.60
2022-08-22T02:28:36.564Z,2.05
2022-08-22T02:31:16.688Z,2.63
2022-08-22T02:33:46.451Z,2.17
2022-08-22T02:36:29.468Z,2.50
2022-08-22T02:39:13.562Z,2.40
2022-08-22T02:42:01.789Z,2.50
2022-08-22T02:44:42.367Z,2.40
2022-08-22T02:47:26.896Z,2.75
2022-08-22T02:50:43.118Z,2.30
2022-08-22T02:53:15.274Z,2.17
2022-08-22T02:55:59.609Z,2.80
2022-08-22T02:58:47.740Z,2.10
2022-08-22T03:01:22.176Z,2.33
2022-08-22T03:03:49.882Z,2.50
2022-08-22T03:06:42.572Z,2.50
2022-08-22T03:09:15.038Z,2.50
2022-08-22T03:11:47.482Z,2.60
2022-08-22T03:14:52.367Z,2.20
2022-08-22T03:17:24.221Z,2.33
2022-08-22T03:20:00.707Z,2.70
2022-08-22T03:22:53.516Z,2.33
2022-08-22T03:25:31.084Z,2.38
2022-08-22T03:28:11.235Z,2.35
2022-08-22T03:30:41.812Z,2.50
2022-08-22T03:33:18.620Z,2.28
2022-08-22T03:35:44.968Z,2.25
2022-08-22T03:38:22.688Z,2.08
2022-08-22T03:41:29.674Z,2.10
2022-08-22T03:44:05.315Z,2.40
2022-08-22T03:46:54.939Z,2.25
2022-08-22T03:49:47.739Z,2.10
2022-08-22T03:52:24.880Z,2.22
2022-08-22T03:55:32.204Z,3.00
2022-08-22T03:58:27.701Z,2.42
2022-08-22T04:01:16.855Z,2.35
2022-08-22T04:04:01.897Z,2.10
2022-08-22T04:06:48.363Z,2.58
2022-08-22T04:09:44.882Z,2.35
2022-08-22T04:12:41.628Z,2.28
2022-08-22T04:15:26.848Z,2.88
2022-08-22T04:18:22.129Z,2.50
2022-08-22T04:21:12.322Z,2.55
2022-08-22T04:23:45.281Z,2.40
2022-08-22T04:26:15.920Z,2.30
2022-08-22T04:28:47.365Z,2.35
2022-08-22T04:31:17.566Z,2.55
2022-08-22T04:33:51.101Z,2.50
2022-08-22T04:36:29.944Z,2.58
2022-08-22T04:39:00.869Z,2.30
2022-08-22T04:41:41.917Z,2.78
2022-08-22T04:44:15.003Z,2.22
2022-08-22T04:46:49.643Z,2.60
2022-08-22T04:49:27.841Z,2.42
2022-08-22T04:52:12.817Z,2.53
2022-08-22T04:55:11.397Z,2.80
2022-08-22T04:57:51.163Z,2.50
2022-08-22T05:00:18.031Z,2.63
2022-08-22T05:02:49.418Z,2.50
2022-08-22T05:05:23.925Z,2.55
2022-08-22T05:07:59.915Z,2.35
2022-08-22T05:10:39.745Z,2.50
2022-08-22T05:13:13.920Z,2.20
2022-08-22T05:15:44.160Z,2.53
2022-08-22T05:18:17.745Z,2.60
2022-08-22T05:20:46.651Z,2.53
2022-08-22T05:23:23.411Z,2.50
2022-08-22T05:25:52.167Z,2.53
2022-08-22T05:28:36.028Z,3.10
2022-08-22T05:31:06.012Z,2.88
2022-08-22T05:33:49.114Z,2.63
2022-08-22T05:36:20.950Z,2.70
2022-08-22T05:38:51.374Z,2.70
2022-08-22T05:41:23.675Z,2.70
2022-08-22T05:43:51.416Z,2.35
2022-08-22T05:46:22.034Z,2.15
2022-08-22T05:48:59.786Z,2.40
2022-08-22T05:51:40.480Z,2.30
2022-08-22T05:54:15.310Z,2.20
2022-08-22T05:56:45.044Z,2.50
2022-08-22T05:59:21.163Z,2.40
2022-08-22T06:02:12.380Z,2.80
2022-08-22T06:04:47.324Z,2.60
2022-08-22T06:07:23.525Z,2.80
2022-08-22T06:10:22.089Z,2.72
2022-08-22T06:13:00.669Z,2.13
2022-08-22T06:15:38.404Z,2.50
2022-08-22T06:18:10.371Z,2.67
2022-08-22T06:20:45.055Z,2.80
2022-08-22T06:23:15.971Z,2.80
2022-08-22T06:25:45.576Z,2.65
2022-08-22T06:28:16.558Z,2.42
2022-08-22T06:30:45.439Z,2.60
2022-08-22T06:33:17.116Z,2.95
2022-08-22T06:36:07.164Z,2.58
2022-08-22T06:38:52.092Z,2.80
2022-08-22T06:41:22.047Z,2.70
2022-08-22T06:43:49.907Z,2.60
2022-08-22T06:46:16.911Z,2.80
2022-08-22T06:48:44.044Z,3.03
2022-08-22T06:51:11.425Z,3.38
2022-08-22T06:53:48.167Z,3.15
2022-08-22T06:56:23.887Z,3.53
2022-08-22T06:58:53.920Z,2.75
2022-08-22T07:01:56.066Z,2.90
2022-08-22T07:04:27.292Z,3.78
2022-08-22T07:06:55.398Z,2.70
2022-08-22T07:09:34.838Z,2.50
2022-08-22T07:12:05.200Z,3.00
2022-08-22T07:14:40.052Z,2.72
2022-08-22T07:17:09.140Z,3.08
2022-08-22T07:19:41.544Z,2.67
2022-08-22T07:22:13.824Z,3.00
2022-08-22T07:24:48.051Z,2.80
2022-08-22T07:27:27.711Z,2.85
2022-08-22T07:30:06.827Z,2.55
2022-08-22T07:33:26.326Z,2.22
2022-08-22T07:35:53.140Z,3.00
2022-08-22T07:38:42.422Z,2.53
2022-08-22T07:41:20.829Z,2.92
2022-08-22T07:44:02.972Z,2.65
2022-08-22T07:46:51.093Z,2.58
2022-08-22T07:49:24.623Z,2.97
2022-08-22T07:51:57.624Z,3.03
2022-08-22T07:54:46.788Z,3.05
2022-08-22T07:57:21.142Z,2.55
2022-08-22T07:59:54.292Z,2.80
2022-08-22T08:02:21.214Z,2.90
2022-08-22T08:04:53.156Z,2.67
2022-08-22T08:07:23.290Z,2.42
2022-08-22T08:09:52.970Z,2.80
2022-08-22T08:12:21.969Z,3.22
2022-08-22T08:14:52.432Z,3.30
2022-08-22T08:17:30.132Z,2.97
2022-08-22T08:20:02.411Z,2.75
2022-08-22T08:22:29.709Z,2.47
2022-08-22T08:24:57.306Z,3.10
2022-08-22T08:27:50.318Z,2.88
2022-08-22T08:30:34.032Z,2.83
2022-08-22T08:33:25.033Z,2.78
2022-08-22T08:36:02.455Z,3.20
2022-08-22T08:38:36.995Z,2.80
2022-08-22T08:41:23.968Z,3.10
2022-08-22T08:44:32.050Z,3.00
2022-08-22T08:47:23.220Z,2.77
2022-08-22T08:50:17.551Z,2.70
2022-08-22T08:53:02.824Z,3.00
2022-08-22T08:55:45.796Z,2.72
2022-08-22T08:58:40.283Z,3.00
2022-08-22T09:01:19.478Z,2.58
2022-08-22T09:04:15.084Z,3.00
2022-08-22T09:06:44.967Z,2.90
2022-08-22T09:09:52.607Z,2.55
2022-08-22T09:12:43.393Z,2.55
2022-08-22T09:15:37.604Z,2.83
2022-08-22T09:18:30.264Z,2.58
2022-08-22T09:21:31.317Z,2.90
2022-08-22T09:24:20.842Z,2.83
2022-08-22T09:26:53.082Z,3.30
2022-08-22T09:29:32.735Z,2.83
2022-08-22T09:32:14.071Z,2.63
2022-08-22T09:34:56.548Z,3.00
2022-08-22T09:37:37.881Z,3.17
2022-08-22T09:40:18.924Z,3.20
2022-08-22T09:43:05.597Z,2.60
2022-08-22T09:45:52.228Z,3.08
2022-08-22T09:48:30.534Z,3.00
2022-08-22T09:51:31.975Z,2.60
2022-08-22T09:54:11.411Z,2.40
2022-08-22T09:56:40.044Z,2.60
2022-08-22T09:59:16.121Z,2.70
2022-08-22T10:02:20.998Z,2.88
2022-08-22T10:04:56.581Z,2.90
2022-08-22T10:07:34.558Z,2.83
2022-08-22T10:10:35.942Z,2.97
2022-08-22T10:13:30.530Z,2.90
2022-08-22T10:16:24.872Z,2.53
2022-08-22T10:19:03.542Z,2.58
2022-08-22T10:21:50.938Z,2.60
2022-08-22T10:24:43.834Z,2.60
2022-08-22T10:27:16.381Z,3.05
2022-08-22T10:29:54.856Z,2.55
2022-08-22T10:32:30.784Z,2.70
2022-08-22T10:35:13.895Z,2.10
2022-08-22T10:37:53.230Z,2.30
2022-08-22T10:40:32.891Z,2.85
2022-08-22T10:43:02.340Z,2.28
2022-08-22T10:45:36.565Z,2.15
2022-08-22T10:48:10.094Z,2.20
2022-08-22T10:50:40.962Z,2.33
2022-08-22T10:53:30.758Z,1.88
2022-08-22T10:56:15.962Z,2.30
2022-08-22T10:59:06.264Z,2.00
2022-08-22T11:01:41.992Z,2.10
2022-08-22T11:04:33.324Z,2.25
2022-08-22T11:07:21.889Z,2.00
2022-08-22T11:09:54.964Z,2.00
2022-08-22T11:12:35.185Z,2.20
2022-08-22T11:15:37.982Z,2.20
2022-08-22T11:18:16.217Z,2.40
2022-08-22T11:21:07.584Z,2.13
2022-08-22T11:23:44.920Z,2.22
2022-08-22T11:26:30.137Z,2.10
2022-08-22T11:29:38.530Z,2.78
2022-08-22T11:32:25.542Z,2.40
2022-08-22T11:35:00.974Z,2.78
2022-08-22T11:37:44.483Z,2.20
2022-08-22T11:40:32.810Z,2.17
2022-08-22T11:43:32.705Z,1.90
2022-08-22T11:46:05.124Z,2.03
2022-08-22T11:48:56.666Z,2.00
2022-08-22T11:51:51.172Z,1.52
2022-08-22T11:54:33.302Z,2.45
2022-08-22T11:57:12.571Z,2.25
2022-08-22T11:59:56.162Z,2.03
2022-08-22T12:02:26.920Z,2.13
2022-08-22T12:04:58.764Z,2.05
2022-08-22T12:07:32.189Z,1.83
2022-08-22T12:10:02.255Z,2.10
2022-08-22T12:12:44.228Z,1.95
2022-08-22T12:15:48.974Z,2.20
2022-08-22T12:18:41.934Z,2.42
2022-08-22T12:21:51.416Z,2.00
2022-08-22T12:24:34.112Z,2.70
2022-08-22T12:27:27.936Z,2.20
2022-08-22T12:30:14.000Z,1.65
2022-08-22T12:32:59.646Z,2.00
2022-08-22T12:35:38.252Z,2.13
2022-08-22T12:38:28.549Z,1.80
2022-08-22T12:41:01.766Z,1.75
2022-08-22T12:43:43.446Z,2.17
2022-08-22T12:46:17.403Z,2.00
2022-08-22T12:49:13.673Z,1.63
2022-08-22T12:52:21.924Z,2.20
2022-08-22T12:55:11.252Z,1.90
2022-08-22T12:58:21.582Z,1.88
2022-08-22T13:00:48.885Z,2.03
2022-08-22T13:03:23.987Z,1.75
2022-08-22T13:05:57.041Z,1.60
2022-08-22T13:08:41.593Z,1.90
2022-08-22T13:11:22.787Z,1.50
2022-08-22T13:13:56.202Z,2.28
2022-08-22T13:16:24.166Z,1.80
2022-08-22T13:19:00.545Z,1.63
2022-08-22T13:21:38.601Z,1.80
2022-08-22T13:24:10.581Z,1.63
2022-08-22T13:26:49.319Z,1.63
2022-08-22T13:29:39.476Z,1.90
2022-08-22T13:32:10.910Z,1.95
2022-08-22T13:34:45.583Z,1.70
2022-08-22T13:37:25.802Z,1.50
2022-08-22T13:39:55.994Z,1.90
2022-08-22T13:42:30.339Z,1.80
2022-08-22T13:45:02.436Z,2.10
2022-08-22T13:47:31.544Z,1.90
2022-08-22T13:50:07.616Z,2.08
2022-08-22T13:52:52.178Z,2.05
2022-08-22T13:55:31.016Z,1.60
2022-08-22T13:58:04.568Z,1.77
2022-08-22T14:01:10.216Z,1.70
2022-08-22T14:04:36.259Z,1.60
2022-08-22T14:07:05.944Z,1.52
2022-08-22T14:09:37.974Z,1.80
2022-08-22T14:12:08.148Z,1.73
2022-08-22T14:14:43.572Z,1.50
2022-08-22T14:17:19.721Z,1.60
2022-08-22T14:19:58.966Z,1.70
2022-08-22T14:22:32.501Z,1.67
2022-08-22T14:25:07.334Z,1.63
2022-08-22T14:27:40.228Z,1.52
2022-08-22T14:30:18.643Z,1.67
2022-08-22T14:35:34.718Z,1.88
2022-08-22T14:38:31.943Z,1.83
2022-08-22T14:41:13.776Z,1.60
2022-08-22T14:43:57.419Z,1.75
2022-08-22T14:46:28.563Z,1.60
2022-08-22T14:49:26.819Z,1.95
2022-08-22T14:52:09.782Z,1.90
2022-08-22T14:54:37.024Z,1.77
2022-08-22T14:57:10.392Z,1.95
2022-08-22T14:59:38.412Z,1.90
2022-08-22T15:02:14.743Z,1.40
2022-08-22T15:04:47.312Z,1.70
2022-08-22T15:07:23.655Z,1.80
2022-08-22T15:09:52.480Z,2.13
2022-08-22T15:14:52.354Z,1.70
2022-08-22T15:17:36.416Z,1.70
2022-08-22T15:20:11.755Z,1.50
2022-08-22T15:22:40.345Z,1.63
2022-08-22T15:25:34.210Z,1.70
2022-08-22T15:28:05.755Z,1.90
2022-08-22T15:30:36.590Z,1.48
2022-08-22T15:33:16.329Z,1.73
2022-08-22T15:35:44.075Z,1.80
2022-08-22T15:38:36.391Z,1.77
2022-08-22T15:41:22.398Z,1.63
2022-08-22T15:43:52.007Z,1.70
2022-08-22T15:46:29.728Z,1.70
2022-08-22T15:49:03.872Z,1.77
2022-08-22T15:51:36.967Z,1.70
2022-08-22T15:54:25.044Z,1.80
2022-08-22T15:56:51.889Z,1.60
2022-08-22T15:59:24.524Z,1.58
2022-08-22T16:01:55.850Z,1.63
2022-08-22T16:04:37.542Z,1.70
2022-08-22T16:07:20.819Z,1.77
2022-08-22T16:09:54.615Z,1.90
2022-08-22T16:12:34.786Z,1.38
2022-08-22T16:15:05.313Z,1.60
2022-08-22T16:17:31.628Z,1.63
2022-08-22T16:20:19.780Z,1.58
2022-08-22T16:25:16.756Z,1.48
2022-08-22T16:27:53.252Z,1.52
2022-08-22T16:30:31.743Z,1.75
2022-08-22T16:32:58.304Z,1.73
2022-08-22T16:36:02.300Z,1.73
2022-08-22T16:38:36.840Z,1.70
2022-08-22T16:41:03.989Z,1.83
2022-08-22T16:43:30.548Z,1.70
2022-08-22T16:45:58.765Z,1.70
2022-08-22T16:48:34.621Z,1.85
2022-08-22T16:51:14.293Z,1.55
2022-08-22T16:53:45.636Z,1.60
2022-08-22T16:56:23.744Z,1.70
2022-08-22T16:59:22.472Z,1.80
2022-08-22T17:02:24.873Z,1.80
2022-08-22T17:05:24.694Z,1.63
2022-08-22T17:08:18.575Z,1.90
2022-08-22T17:13:29.923Z,1.60
2022-08-22T17:16:05.803Z,1.40
2022-08-22T17:18:45.302Z,1.90
2022-08-22T17:21:41.484Z,1.58
2022-08-22T17:24:31.651Z,1.50
2022-08-22T17:27:07.383Z,1.38
2022-08-22T17:29:44.618Z,1.60
2022-08-22T17:32:21.801Z,1.77
2022-08-22T17:34:55.831Z,1.42
2022-08-22T17:37:41.748Z,1.70
2022-08-22T17:40:34.943Z,1.38
2022-08-22T17:43:07.508Z,1.48
2022-08-22T17:45:59.216Z,1.63
2022-08-22T17:48:31.251Z,1.67
2022-08-22T17:51:32.214Z,1.52
2022-08-22T17:54:12.294Z,1.55
2022-08-22T17:56:42.232Z,1.30
2022-08-22T17:59:24.227Z,1.60
2022-08-22T18:01:56.703Z,1.73
2022-08-22T18:04:29.154Z,1.60
2022-08-22T18:07:17.401Z,1.55
2022-08-22T18:09:52.500Z,1.50
2022-08-22T18:12:24.350Z,1.40
2022-08-22T18:14:59.110Z,1.63
2022-08-22T18:17:36.166Z,1.60
2022-08-22T18:20:20.568Z,1.50
2022-08-22T18:23:21.240Z,1.55
2022-08-22T18:26:08.714Z,1.40
2022-08-22T18:28:51.040Z,1.63
2022-08-22T18:31:26.696Z,1.45
2022-08-22T18:34:00.985Z,1.60
2022-08-22T18:36:38.304Z,1.60
2022-08-22T18:39:07.437Z,1.50
2022-08-22T18:41:44.372Z,1.55
2022-08-22T18:44:18.357Z,1.60
2022-08-22T18:46:47.628Z,1.40
2022-08-22T18:49:24.186Z,1.50
2022-08-22T18:52:05.959Z,1.40
2022-08-22T18:54:58.792Z,1.65
2022-08-22T18:57:47.327Z,1.33
2022-08-22T19:00:22.372Z,1.42
2022-08-22T19:03:16.551Z,1.40
2022-08-22T19:06:03.591Z,1.52
2022-08-22T19:08:53.069Z,1.60
2022-08-22T19:11:37.309Z,1.83
2022-08-22T19:14:13.082Z,1.63
2022-08-22T19:17:16.138Z,1.33
2022-08-22T19:20:11.015Z,1.60
2022-08-22T19:22:37.584Z,1.63
2022-08-22T19:25:18.205Z,1.27
2022-08-22T19:27:44.701Z,1.50
2022-08-22T19:30:36.195Z,1.67
2022-08-22T19:33:10.593Z,1.52
2022-08-22T19:35:49.352Z,1.33
2022-08-22T19:38:58.384Z,1.58
2022-08-22T19:41:45.252Z,1.52
2022-08-22T19:44:40.304Z,1.40
2022-08-22T19:47:19.048Z,1.50
2022-08-22T19:50:08.044Z,1.33
2022-08-22T19:55:29.340Z,1.45
2022-08-22T19:58:07.876Z,1.42
2022-08-22T20:00:48.307Z,1.63
2022-08-22T20:03:42.535Z,1.20
2022-08-22T20:06:43.529Z,1.25
2022-08-22T20:09:19.401Z,1.45
2022-08-22T20:12:00.689Z,1.42
2022-08-22T20:14:30.183Z,1.40
2022-08-22T20:17:01.905Z,1.33
2022-08-22T20:22:38.713Z,1.50
2022-08-22T20:25:42.560Z,1.88
2022-08-22T20:28:39.888Z,1.55
2022-08-22T20:31:12.300Z,1.30
2022-08-22T20:33:41.995Z,1.40
2022-08-22T20:36:27.220Z,1.63
2022-08-22T20:38:58.661Z,1.30
2022-08-22T20:41:35.550Z,1.52
2022-08-22T20:44:30.630Z,1.48
2022-08-22T20:47:03.256Z,1.40
2022-08-22T20:49:43.852Z,1.70
2022-08-22T20:52:54.331Z,1.52
2022-08-22T20:55:27.257Z,1.40
2022-08-22T20:58:02.485Z,1.38
2022-08-22T21:00:35.495Z,1.50
2022-08-22T21:03:05.908Z,1.67
2022-08-22T21:05:38.414Z,1.52
2022-08-22T21:08:09.040Z,1.40
2022-08-22T21:10:56.066Z,1.50
2022-08-22T21:13:29.725Z,1.30
2022-08-22T21:16:10.256Z,1.60
2022-08-22T21:18:40.055Z,1.50
2022-08-22T21:21:18.054Z,1.40
2022-08-22T21:23:49.720Z,1.60
2022-08-22T21:26:26.377Z,1.50
2022-08-22T21:29:05.508Z,1.50
2022-08-22T21:31:41.425Z,1.70
2022-08-22T21:34:13.486Z,1.58
2022-08-22T21:36:40.335Z,1.55
2022-08-22T21:39:16.767Z,1.27
2022-08-22T21:41:48.816Z,1.48
2022-08-22T21:44:37.641Z,1.40
2022-08-22T21:47:40.074Z,1.42
2022-08-22T21:50:12.348Z,1.58
2022-08-22T21:52:41.836Z,1.63
2022-08-22T21:55:22.556Z,1.20
2022-08-22T21:58:10.252Z,1.58
2022-08-22T22:00:50.956Z,1.40
2022-08-22T22:03:20.284Z,1.75
2022-08-22T22:05:49.614Z,1.67
2022-08-22T22:08:16.773Z,1.38
2022-08-22T22:10:45.341Z,1.50
2022-08-22T22:13:12.339Z,1.55
2022-08-22T22:15:46.589Z,1.38
2022-08-22T22:18:14.860Z,1.30
2022-08-22T22:20:42.082Z,1.80
2022-08-22T22:23:08.848Z,1.58
2022-08-22T22:25:41.125Z,1.55
2022-08-22T22:28:12.419Z,1.60
2022-08-22T22:30:39.261Z,1.75
2022-08-22T22:33:06.301Z,1.40
2022-08-22T22:35:33.519Z,1.58
2022-08-22T22:38:00.227Z,1.40
2022-08-22T22:40:26.846Z,1.40
2022-08-22T22:42:53.342Z,1.20
2022-08-22T22:45:19.775Z,1.50
2022-08-22T22:47:46.281Z,1.52
2022-08-22T22:50:12.748Z,1.50
2022-08-22T22:52:40.925Z,1.50
2022-08-22T22:55:08.869Z,1.48
2022-08-22T22:57:42.744Z,1.50
2022-08-22T23:00:11.096Z,1.42
2022-08-22T23:02:37.542Z,1.53
2022-08-22T23:05:04.187Z,1.45
2022-08-22T23:07:30.645Z,1.67
2022-08-22T23:10:01.294Z,1.40
2022-08-22T23:12:28.141Z,1.30
2022-08-22T23:14:54.630Z,1.30
2022-08-22T23:17:23.133Z,1.58
2022-08-22T23:19:50.696Z,1.70
2022-08-22T23:22:17.441Z,1.73
2022-08-22T23:24:44.083Z,1.63
2022-08-22T23:27:11.241Z,1.70
2022-08-22T23:29:41.468Z,1.38
2022-08-22T23:32:09.370Z,1.55
2022-08-22T23:34:48.754Z,1.60
2022-08-22T23:37:17.741Z,1.27
2022-08-22T23:42:11.556Z,1.42
2022-08-22T23:44:39.506Z,1.40
2022-08-22T23:47:07.625Z,1.63
2022-08-22T23:49:34.683Z,1.65
2022-08-22T23:52:01.859Z,1.40
2022-08-22T23:54:28.329Z,1.25
2022-08-22T23:56:56.864Z,1.42
